createdAt,value
2023-02-12T00:01:32.780Z,62.36
2023-02-12T00:04:01.796Z,62.41
2023-02-12T00:06:30.788Z,62.43
2023-02-12T00:08:59.180Z,62.52
2023-02-12T00:11:29.855Z,62.58
2023-02-12T00:13:58.982Z,62.54
2023-02-12T00:16:30.127Z,62.75
2023-02-12T00:19:00.125Z,62.76
2023-02-12T00:21:30.160Z,63.02
2023-02-12T00:23:58.885Z,63.19
2023-02-12T00:26:27.662Z,63.21
2023-02-12T00:28:56.490Z,63.34
2023-02-12T00:31:26.846Z,63.29
2023-02-12T00:34:01.618Z,63.50
2023-02-12T00:36:32.067Z,63.67
2023-02-12T00:39:02.181Z,63.65
2023-02-12T00:41:31.640Z,63.72
2023-02-12T00:44:00.004Z,63.91
2023-02-12T00:46:28.917Z,63.99
2023-02-12T00:48:58.751Z,64.16
2023-02-12T00:51:27.573Z,64.35
2023-02-12T00:53:55.934Z,64.46
2023-02-12T00:56:25.734Z,64.75
2023-02-12T00:58:54.104Z,64.98
2023-02-12T01:01:22.909Z,65.07
2023-02-12T01:03:51.774Z,65.12
2023-02-12T01:06:22.706Z,65.18
2023-02-12T01:08:52.497Z,65.26
2023-02-12T01:11:22.061Z,65.36
2023-02-12T01:13:50.470Z,65.46
2023-02-12T01:16:21.722Z,65.59
2023-02-12T01:18:54.448Z,65.71
2023-02-12T01:21:29.125Z,65.88
2023-02-12T01:23:58.434Z,65.91
2023-02-12T01:26:29.160Z,65.94
2023-02-12T01:29:01.425Z,66.14
2023-02-12T01:31:32.824Z,66.22
2023-02-12T01:34:02.346Z,66.21
2023-02-12T01:36:32.356Z,66.42
2023-02-12T01:39:02.843Z,66.42
2023-02-12T01:41:33.443Z,66.60
2023-02-12T01:44:08.402Z,66.50
2023-02-12T01:46:37.627Z,66.62
2023-02-12T01:49:10.474Z,66.75
2023-02-12T01:51:42.415Z,67.00
2023-02-12T01:54:14.336Z,67.13
2023-02-12T01:56:44.061Z,67.18
2023-02-12T01:59:13.687Z,67.28
2023-02-12T02:01:42.323Z,67.28
2023-02-12T02:04:14.936Z,67.38
2023-02-12T02:06:52.375Z,67.57
2023-02-12T02:09:21.109Z,67.63
2023-02-12T02:12:07.739Z,67.80
2023-02-12T02:14:36.962Z,67.83
2023-02-12T02:17:25.519Z,67.86
2023-02-12T02:20:22.880Z,67.96
2023-02-12T02:23:09.510Z,67.98
2023-02-12T02:26:12.552Z,68.17
2023-02-12T02:29:05.692Z,68.29
2023-02-12T02:31:42.147Z,68.34
2023-02-12T02:34:16.371Z,68.37
2023-02-12T02:37:00.210Z,68.55
2023-02-12T02:39:39.209Z,68.63
2023-02-12T02:42:13.938Z,68.51
2023-02-12T02:44:47.777Z,68.72
2023-02-12T02:47:21.163Z,68.71
2023-02-12T02:49:56.226Z,68.87
2023-02-12T02:52:31.499Z,68.79
2023-02-12T02:55:06.838Z,69.04
2023-02-12T02:57:40.551Z,69.04
2023-02-12T03:00:15.792Z,69.09
2023-02-12T03:02:52.035Z,69.25
2023-02-12T03:05:26.014Z,69.14
2023-02-12T03:08:00.865Z,69.28
2023-02-12T03:10:34.951Z,69.27
2023-02-12T03:13:08.387Z,69.36
2023-02-12T03:15:40.566Z,69.38
2023-02-12T03:18:14.700Z,69.55
2023-02-12T03:20:48.845Z,69.40
2023-02-12T03:23:24.037Z,69.66
2023-02-12T03:25:59.141Z,69.78
2023-02-12T03:28:30.994Z,69.75
2023-02-12T03:31:08.949Z,69.92
2023-02-12T03:33:46.322Z,69.96
2023-02-12T03:36:23.953Z,69.99
2023-02-12T03:38:56.815Z,70.10
2023-02-12T03:41:32.534Z,70.11
2023-02-12T03:44:07.868Z,70.26
2023-02-12T03:46:44.115Z,70.26
2023-02-12T03:49:22.432Z,70.46
2023-02-12T03:51:51.590Z,70.53
2023-02-12T03:54:22.786Z,70.64
2023-02-12T03:56:55.822Z,70.70
2023-02-12T03:59:26.432Z,70.81
2023-02-12T04:01:57.206Z,70.88
2023-02-12T04:04:28.109Z,70.99
2023-02-12T04:06:58.011Z,71.03
2023-02-12T04:09:28.813Z,71.26
2023-02-12T04:12:11.145Z,71.42
2023-02-12T04:14:51.159Z,71.54
2023-02-12T04:17:28.230Z,71.52
2023-02-12T04:20:09.817Z,71.68
2023-02-12T04:22:48.175Z,71.68
2023-02-12T04:25:26.747Z,71.76
2023-02-12T04:28:02.704Z,71.99
2023-02-12T04:30:52.442Z,72.13
2023-02-12T04:33:40.564Z,72.10
2023-02-12T04:36:25.470Z,72.32
2023-02-12T04:39:41.126Z,72.39
2023-02-12T04:42:13.632Z,72.46
2023-02-12T04:50:42.585Z,72.58
2023-02-12T04:59:12.951Z,72.92
2023-02-12T05:19:10.171Z,73.31
2023-02-12T05:22:18.873Z,73.40
2023-02-12T05:33:09.602Z,73.47
2023-02-12T05:36:49.287Z,73.40
2023-02-12T05:43:01.571Z,73.78
2023-02-12T06:34:50.315Z,74.24
2023-02-12T06:54:46.630Z,74.52
2023-02-12T06:57:15.622Z,74.20
2023-02-12T06:59:44.446Z,74.42
2023-02-12T07:02:13.215Z,74.57
2023-02-12T07:04:41.678Z,74.54
2023-02-12T07:07:10.439Z,74.56
2023-02-12T07:09:40.160Z,74.52
2023-02-12T07:12:09.064Z,74.66
2023-02-12T07:14:37.601Z,74.65
2023-02-12T07:17:08.902Z,74.53
2023-02-12T07:19:38.031Z,74.64
2023-02-12T07:22:06.942Z,74.66
2023-02-12T07:24:35.271Z,74.61
2023-02-12T07:27:06.126Z,74.64
2023-02-12T07:29:34.680Z,74.56
2023-02-12T07:32:03.441Z,74.54
2023-02-12T07:34:32.164Z,74.79
2023-02-12T07:37:01.414Z,74.50
2023-02-12T07:39:29.705Z,74.52
2023-02-12T07:41:58.606Z,74.44
2023-02-12T07:44:28.340Z,74.49
2023-02-12T07:46:57.094Z,74.50
2023-02-12T07:49:25.643Z,74.51
2023-02-12T07:51:57.188Z,74.48
2023-02-12T07:54:26.023Z,74.62
2023-02-12T07:56:55.169Z,74.55
2023-02-12T07:59:24.204Z,74.58
2023-02-12T08:01:54.854Z,74.49
2023-02-12T08:04:25.956Z,74.57
2023-02-12T08:06:56.358Z,74.63
2023-02-12T08:09:28.083Z,74.66
2023-02-12T08:11:56.393Z,74.61
2023-02-12T08:14:25.232Z,74.61
2023-02-12T08:16:55.019Z,74.66
2023-02-12T08:19:26.365Z,74.75
2023-02-12T08:21:56.607Z,74.63
2023-02-12T08:24:26.524Z,74.61
2023-02-12T08:26:55.146Z,74.69
2023-02-12T08:29:26.230Z,74.58
2023-02-12T08:31:59.485Z,74.50
2023-02-12T08:34:29.887Z,74.56
2023-02-12T08:36:59.192Z,74.55
2023-02-12T08:39:30.167Z,74.36
2023-02-12T08:42:00.292Z,74.46
2023-02-12T08:44:28.980Z,74.42
2023-02-12T08:46:59.155Z,74.39
2023-02-12T08:49:29.387Z,74.48
2023-02-12T08:52:02.126Z,74.45
2023-02-12T08:54:31.625Z,74.39
2023-02-12T08:57:02.088Z,74.44
2023-02-12T08:59:31.418Z,74.42
2023-02-12T09:02:01.917Z,74.36
2023-02-12T09:04:31.338Z,74.25
2023-02-12T09:06:59.690Z,74.24
2023-02-12T09:09:28.391Z,74.60
2023-02-12T09:11:57.275Z,74.36
2023-02-12T09:14:25.918Z,74.09
2023-02-12T09:16:54.642Z,74.25
2023-02-12T09:19:25.083Z,74.33
2023-02-12T09:21:55.991Z,74.14
2023-02-12T09:24:25.040Z,74.66
2023-02-12T09:26:53.843Z,74.39
2023-02-12T09:29:22.150Z,74.38
2023-02-12T09:31:50.575Z,74.45
2023-02-12T09:34:19.746Z,74.34
2023-02-12T09:36:49.511Z,74.25
2023-02-12T09:39:18.084Z,74.30
2023-02-12T09:42:28.087Z,74.21
2023-02-12T09:45:04.541Z,74.07
2023-02-12T09:47:40.770Z,74.20
2023-02-12T09:50:28.042Z,73.94
2023-02-12T09:52:59.243Z,74.04
2023-02-12T09:55:31.359Z,73.96
2023-02-12T09:58:02.258Z,74.05
2023-02-12T10:00:32.407Z,73.92
2023-02-12T10:03:05.938Z,73.96
2023-02-12T10:05:42.095Z,73.86
2023-02-12T10:08:25.610Z,73.87
2023-02-12T10:11:00.416Z,73.68
2023-02-12T10:13:40.213Z,73.83
2023-02-12T10:16:16.069Z,73.85
2023-02-12T10:19:00.579Z,73.79
2023-02-12T10:21:43.627Z,73.88
2023-02-12T10:24:36.925Z,73.57
2023-02-12T10:27:12.657Z,73.69
2023-02-12T10:29:43.776Z,73.61
2023-02-12T10:32:21.703Z,73.37
2023-02-12T10:34:52.876Z,73.52
2023-02-12T10:37:29.842Z,73.39
2023-02-12T10:40:04.796Z,73.32
2023-02-12T10:42:40.194Z,73.22
2023-02-12T10:45:15.374Z,73.05
2023-02-12T10:47:45.564Z,73.05
2023-02-12T10:50:24.068Z,72.92
2023-02-12T10:52:57.461Z,72.84
2023-02-12T10:55:30.366Z,72.74
2023-02-12T10:58:01.153Z,72.67
2023-02-12T11:00:32.729Z,72.66
2023-02-12T11:03:22.023Z,72.41
2023-02-12T11:05:51.209Z,72.46
2023-02-12T11:08:31.993Z,72.32
2023-02-12T11:11:10.279Z,72.44
2023-02-12T11:13:40.946Z,72.30
2023-02-12T11:16:10.794Z,72.27
2023-02-12T11:18:39.796Z,72.32
2023-02-12T11:21:11.490Z,72.24
2023-02-12T11:23:41.388Z,72.11
2023-02-12T11:26:26.838Z,72.22
2023-02-12T11:28:57.225Z,72.19
2023-02-12T11:31:28.493Z,72.15
2023-02-12T11:34:15.578Z,71.95
2023-02-12T11:36:47.480Z,71.96
2023-02-12T11:39:22.874Z,72.02
2023-02-12T11:41:56.499Z,71.90
2023-02-12T11:44:28.613Z,71.99
2023-02-12T11:47:02.171Z,71.84
2023-02-12T11:49:34.668Z,71.77
2023-02-12T11:52:05.208Z,71.78
2023-02-12T11:54:40.212Z,71.70
2023-02-12T11:57:34.739Z,71.69
2023-02-12T12:00:12.878Z,71.71
2023-02-12T12:02:59.143Z,71.57
2023-02-12T12:05:33.086Z,71.28
2023-02-12T12:08:09.516Z,71.46
2023-02-12T12:10:43.603Z,71.26
2023-02-12T12:13:18.779Z,71.24
2023-02-12T12:16:09.369Z,71.20
2023-02-12T12:19:04.509Z,71.04
2023-02-12T12:21:40.785Z,71.06
2023-02-12T12:24:15.454Z,71.12
2023-02-12T12:26:50.641Z,70.79
2023-02-12T12:29:24.207Z,70.59
2023-02-12T12:32:00.491Z,70.69
2023-02-12T12:34:29.929Z,70.65
2023-02-12T12:37:16.524Z,70.60
2023-02-12T12:39:59.843Z,70.58
2023-02-12T12:43:04.735Z,70.65
2023-02-12T12:46:00.465Z,70.43
2023-02-12T12:48:46.589Z,70.21
2023-02-12T12:51:30.636Z,70.03
2023-02-12T12:54:12.107Z,70.00
2023-02-12T12:56:50.318Z,69.76
2023-02-12T13:00:02.401Z,69.76
2023-02-12T13:03:02.405Z,69.60
2023-02-12T13:06:00.117Z,69.17
2023-02-12T13:08:40.949Z,68.84
2023-02-12T13:11:24.497Z,68.69
2023-02-12T13:14:02.938Z,68.36
2023-02-12T13:16:36.943Z,68.35
2023-02-12T13:19:14.262Z,67.78
2023-02-12T13:21:52.897Z,67.47
2023-02-12T13:24:28.917Z,67.20
2023-02-12T13:27:01.774Z,67.04
2023-02-12T13:29:36.104Z,67.00
2023-02-12T13:32:10.055Z,67.28
2023-02-12T13:34:40.755Z,67.17
2023-02-12T13:37:18.714Z,66.77
2023-02-12T13:39:50.341Z,66.60
2023-02-12T13:42:40.910Z,66.40
2023-02-12T13:45:22.978Z,66.09
2023-02-12T13:48:02.630Z,66.25
2023-02-12T13:50:42.578Z,66.28
2023-02-12T13:53:23.409Z,65.97
2023-02-12T13:56:08.020Z,65.72
2023-02-12T13:58:52.042Z,65.86
2023-02-12T14:01:39.985Z,65.85
2023-02-12T14:04:29.914Z,66.05
2023-02-12T14:07:02.075Z,65.86
2023-02-12T14:09:37.752Z,65.72
2023-02-12T14:12:10.515Z,65.67
2023-02-12T14:14:45.572Z,65.73
2023-02-12T14:17:43.769Z,66.03
2023-02-12T14:20:24.267Z,66.10
2023-02-12T14:23:26.657Z,66.25
2023-02-12T14:26:06.101Z,66.03
2023-02-12T14:28:48.809Z,65.68
2023-02-12T14:31:38.811Z,65.61
2023-02-12T14:34:49.240Z,65.70
2023-02-12T14:37:38.527Z,65.66
2023-02-12T14:40:45.689Z,65.48
2023-02-12T14:44:00.290Z,65.46
2023-02-12T14:46:46.245Z,65.29
2023-02-12T14:49:26.737Z,65.22
2023-02-12T14:51:59.502Z,65.08
2023-02-12T14:54:34.068Z,64.73
2023-02-12T14:57:07.889Z,64.64
2023-02-12T14:59:42.529Z,64.77
2023-02-12T15:02:18.519Z,64.37
2023-02-12T15:04:47.082Z,64.77
2023-02-12T15:07:24.013Z,64.69
2023-02-12T15:09:57.289Z,64.42
2023-02-12T15:12:32.726Z,64.47
2023-02-12T15:15:14.586Z,64.04
2023-02-12T15:17:54.589Z,63.79
2023-02-12T15:20:26.202Z,63.21
2023-02-12T15:22:56.241Z,62.99
2023-02-12T15:25:27.287Z,62.63
2023-02-12T15:27:59.482Z,62.47
2023-02-12T15:30:31.502Z,62.35
2023-02-12T15:33:05.855Z,61.77
2023-02-12T15:35:37.215Z,61.59
2023-02-12T15:38:08.222Z,61.33
2023-02-12T15:40:36.554Z,61.33
2023-02-12T15:43:08.739Z,61.06
2023-02-12T15:45:39.814Z,61.16
2023-02-12T15:48:14.520Z,61.26
2023-02-12T15:50:55.026Z,61.19
2023-02-12T15:53:27.381Z,60.94
2023-02-12T15:55:56.469Z,61.08
2023-02-12T15:58:28.022Z,60.82
2023-02-12T16:01:02.890Z,60.83
2023-02-12T16:03:33.854Z,60.81
2023-02-12T16:06:11.387Z,60.78
2023-02-12T16:08:40.647Z,60.97
2023-02-12T16:11:14.772Z,61.26
2023-02-12T16:13:47.219Z,61.43
2023-02-12T16:16:24.560Z,61.71
2023-02-12T16:19:08.343Z,61.63
2023-02-12T16:21:39.292Z,61.86
2023-02-12T16:24:26.890Z,62.19
2023-02-12T16:26:56.205Z,62.10
2023-02-12T16:29:26.018Z,62.23
2023-02-12T16:31:59.644Z,62.15
2023-02-12T16:34:31.976Z,62.21
2023-02-12T16:37:00.346Z,62.19
2023-02-12T16:40:10.113Z,62.33
2023-02-12T16:42:38.715Z,62.32
2023-02-12T16:45:36.226Z,62.44
2023-02-12T16:48:14.464Z,62.31
2023-02-12T16:50:49.101Z,62.41
2023-02-12T16:53:43.509Z,62.33
2023-02-12T16:56:18.538Z,62.43
2023-02-12T16:58:48.560Z,62.34
2023-02-12T17:01:19.661Z,62.50
2023-02-12T17:03:51.471Z,62.69
2023-02-12T17:06:21.693Z,62.78
2023-02-12T17:08:50.453Z,62.75
2023-02-12T17:11:19.276Z,62.93
2023-02-12T17:13:49.972Z,62.78
2023-02-12T17:16:29.798Z,62.76
2023-02-12T17:19:01.282Z,62.63
2023-02-12T17:21:32.162Z,62.57
2023-02-12T17:24:00.642Z,62.66
2023-02-12T17:26:29.236Z,62.38
2023-02-12T17:29:05.164Z,62.64
2023-02-12T17:31:34.753Z,62.69
2023-02-12T17:34:05.806Z,62.93
2023-02-12T17:36:34.856Z,62.98
2023-02-12T17:39:06.337Z,63.09
2023-02-12T17:41:35.663Z,63.12
2023-02-12T17:44:04.854Z,63.31
2023-02-12T17:46:34.215Z,63.16
2023-02-12T17:49:05.785Z,63.14
2023-02-12T17:51:44.670Z,63.21
2023-02-12T17:54:14.386Z,63.10
2023-02-12T17:56:43.197Z,63.08
2023-02-12T17:59:11.619Z,63.37
2023-02-12T18:01:41.399Z,63.50
2023-02-12T18:04:11.170Z,63.39
2023-02-12T18:06:39.554Z,63.51
2023-02-12T18:09:07.859Z,63.74
2023-02-12T18:11:38.365Z,63.92
2023-02-12T18:14:06.958Z,63.96
2023-02-12T18:16:36.512Z,63.88
2023-02-12T18:19:05.962Z,63.63
2023-02-12T18:21:35.844Z,63.43
2023-02-12T18:24:05.370Z,63.33
2023-02-12T18:26:33.922Z,63.49
2023-02-12T18:29:03.197Z,63.58
2023-02-12T18:31:32.155Z,63.61
2023-02-12T18:34:01.077Z,63.70
2023-02-12T18:36:29.529Z,63.88
2023-02-12T18:39:01.402Z,63.86
2023-02-12T18:41:33.462Z,64.01
2023-02-12T18:44:01.789Z,64.01
2023-02-12T18:46:33.372Z,64.19
2023-02-12T18:49:03.725Z,64.06
2023-02-12T18:51:36.599Z,64.06
2023-02-12T18:54:12.577Z,63.96
2023-02-12T18:56:44.013Z,64.15
2023-02-12T18:59:16.104Z,64.26
2023-02-12T19:01:46.381Z,64.21
2023-02-12T19:04:17.125Z,64.31
2023-02-12T19:06:47.804Z,64.46
2023-02-12T19:09:20.666Z,64.57
2023-02-12T19:11:50.498Z,64.60
2023-02-12T19:14:21.450Z,64.52
2023-02-12T19:16:50.222Z,64.41
2023-02-12T19:19:21.044Z,64.46
2023-02-12T19:21:49.642Z,64.75
2023-02-12T19:24:19.988Z,64.60
2023-02-12T19:26:52.229Z,64.64
2023-02-12T19:29:20.547Z,64.75
2023-02-12T19:31:49.696Z,64.93
2023-02-12T19:34:20.658Z,64.91
2023-02-12T19:36:50.860Z,65.40
2023-02-12T19:39:22.718Z,65.09
2023-02-12T19:41:52.045Z,65.19
2023-02-12T19:44:23.244Z,65.06
2023-02-12T19:46:52.025Z,65.02
2023-02-12T19:49:23.151Z,65.03
2023-02-12T19:51:51.826Z,65.04
2023-02-12T19:54:24.502Z,65.16
2023-02-12T19:56:53.314Z,65.33
2023-02-12T19:59:24.203Z,65.36
2023-02-12T20:01:52.801Z,65.76
2023-02-12T20:04:24.134Z,65.88
2023-02-12T20:06:53.283Z,66.03
2023-02-12T20:09:23.744Z,65.96
2023-02-12T20:11:53.945Z,65.82
2023-02-12T20:14:22.806Z,65.82
2023-02-12T20:16:52.710Z,65.67
2023-02-12T20:19:25.836Z,65.80
2023-02-12T20:21:57.157Z,65.70
2023-02-12T20:24:28.741Z,66.05
2023-02-12T20:26:59.588Z,66.07
2023-02-12T20:29:28.790Z,66.37
2023-02-12T20:31:58.213Z,66.58
2023-02-12T20:34:27.225Z,66.66
2023-02-12T20:36:55.878Z,66.72
2023-02-12T20:39:28.209Z,66.84
2023-02-12T20:41:56.958Z,66.62
2023-02-12T20:44:25.631Z,66.96
2023-02-12T20:46:57.202Z,67.17
2023-02-12T20:49:26.199Z,67.49
2023-02-12T20:51:56.532Z,67.59
2023-02-12T20:54:25.867Z,67.82
2023-02-12T20:56:56.080Z,68.04
2023-02-12T20:59:24.430Z,68.22
2023-02-12T21:01:53.278Z,68.22
2023-02-12T21:04:21.680Z,68.41
2023-02-12T21:06:52.195Z,68.41
2023-02-12T21:09:20.535Z,68.77
2023-02-12T21:11:50.780Z,68.81
2023-02-12T21:14:23.514Z,68.85
2023-02-12T21:16:54.816Z,68.95
2023-02-12T21:19:24.325Z,69.14
2023-02-12T21:21:53.911Z,69.14
2023-02-12T21:24:25.052Z,69.25
2023-02-12T21:26:55.338Z,69.39
2023-02-12T21:29:26.678Z,69.88
2023-02-12T21:31:55.640Z,69.94
2023-02-12T21:34:24.600Z,69.92
2023-02-12T21:36:55.773Z,69.96
2023-02-12T21:39:27.513Z,69.92
2023-02-12T21:42:01.209Z,70.13
2023-02-12T21:44:32.380Z,70.12
2023-02-12T21:47:00.790Z,70.12
2023-02-12T21:49:29.510Z,70.21
2023-02-12T21:52:02.545Z,70.16
2023-02-12T21:54:31.683Z,70.30
2023-02-12T21:57:00.956Z,70.52
2023-02-12T21:59:32.452Z,70.47
2023-02-12T22:02:01.917Z,70.76
2023-02-12T22:04:30.715Z,70.98
2023-02-12T22:07:03.012Z,70.96
2023-02-12T22:09:31.715Z,70.97
2023-02-12T22:12:00.696Z,70.86
2023-02-12T22:14:29.627Z,71.06
2023-02-12T22:16:59.989Z,70.93
2023-02-12T22:19:28.365Z,71.03
2023-02-12T22:21:57.655Z,71.21
2023-02-12T22:24:26.001Z,71.16
2023-02-12T22:26:56.322Z,71.44
2023-02-12T22:29:24.766Z,71.64
2023-02-12T22:31:53.888Z,71.91
2023-02-12T22:34:23.598Z,71.89
2023-02-12T22:36:52.782Z,71.96
2023-02-12T22:39:22.290Z,72.12
2023-02-12T22:41:51.448Z,72.14
2023-02-12T22:44:21.296Z,72.13
2023-02-12T22:46:50.119Z,72.28
2023-02-12T22:49:19.254Z,72.32
2023-02-12T22:51:48.981Z,72.35
2023-02-12T22:54:19.075Z,72.54
2023-02-12T22:56:51.469Z,72.45
2023-02-12T22:59:20.780Z,72.45
2023-02-12T23:01:49.606Z,72.43
2023-02-12T23:04:19.277Z,72.54
2023-02-12T23:06:49.845Z,72.47
2023-02-12T23:09:20.185Z,72.53
2023-02-12T23:11:49.585Z,72.57
2023-02-12T23:14:19.498Z,72.45
2023-02-12T23:16:48.283Z,72.75
2023-02-12T23:19:16.764Z,72.79
2023-02-12T23:21:45.265Z,72.87
2023-02-12T23:24:16.089Z,72.85
2023-02-12T23:26:44.945Z,72.86
2023-02-12T23:29:13.595Z,73.20
2023-02-12T23:31:43.019Z,73.32
2023-02-12T23:34:12.341Z,73.48
2023-02-12T23:36:43.749Z,73.57
2023-02-12T23:39:16.340Z,73.88
2023-02-12T23:41:44.773Z,74.01
2023-02-12T23:44:14.092Z,73.91
2023-02-12T23:46:43.187Z,73.97
2023-02-12T23:49:11.581Z,74.07
2023-02-12T23:51:39.884Z,73.80
2023-02-12T23:54:08.281Z,74.08
2023-02-12T23:56:38.889Z,73.85
2023-02-12T23:59:07.232Z,74.02
